Current Conditions
Fog
Conditions



Pressure
1019.98 (hPa) - 30.12 (inHG)
Visibility

0.3 (km) - 0.2 (miles)
Temperature
7  °C
Temperature
6  °C
Dewpoint
93  %
 Humidity
Wind Speed
11  km/h
6  kts
7  mph
3.1  m/s
Wind Direction
N
45°
E
90°
135°
S
180°
225°
W
270°
315°
 300°

West North
West
Airport Data
YMML
Melbourne International Airport
Metar :YMML 141730Z 30006KT 0300 FG 07/06 Q1020 OBSCURED
Sat 15th June 03:30 am
Raw Metar Info
Raw METAR is the most common format in the world for the transmission of observational weather data. It is highly standardized through the International Civil Aviation Organization (ICAO), which allows it to be understood throughout most of the world.
API Info
Data Provided by
https://www.checkwx.com/weather/YMML

Aviation Weather providing METAR, TAF, AIRMET, SIGMET and OUTLOOK Weather Reports
© Info
CSS/SVG/PHP scripts were developed by weather34 for use in the weather34 template © 2015-2024

Guide Info provided by Metar-Wikipedia